createdAt,value
2017-09-11T00:01:19.649Z,75.30
2017-09-11T00:03:47.893Z,75.40
2017-09-11T00:06:16.117Z,75.40
2017-09-11T00:08:45.128Z,75.20
2017-09-11T00:11:13.356Z,75.20
2017-09-11T00:13:41.609Z,75.30
2017-09-11T00:16:09.833Z,75.40
2017-09-11T00:18:38.830Z,75.40
2017-09-11T00:21:07.072Z,75.40
2017-09-11T00:23:35.296Z,75.70
2017-09-11T00:26:03.552Z,75.70
2017-09-11T00:28:32.553Z,76.00
2017-09-11T00:31:01.565Z,76.10
2017-09-11T00:33:29.789Z,75.40
2017-09-11T00:35:58.044Z,75.60
2017-09-11T00:38:26.272Z,75.80
2017-09-11T00:40:55.377Z,76.20
2017-09-11T00:44:00.006Z,76.20
2017-09-11T00:46:28.260Z,76.20
2017-09-11T00:48:56.494Z,76.50
2017-09-11T00:51:24.750Z,76.50
2017-09-11T00:53:53.020Z,76.60
2017-09-11T00:56:22.064Z,77.30
2017-09-11T00:58:50.340Z,77.30
2017-09-11T01:01:18.604Z,77.40
2017-09-11T01:03:47.508Z,77.70
2017-09-11T01:06:15.766Z,78.20
2017-09-11T01:08:44.770Z,78.50
2017-09-11T01:11:13.028Z,78.60
2017-09-11T01:13:41.262Z,78.70
2017-09-11T01:16:09.535Z,79.00
2017-09-11T01:18:37.815Z,78.90
2017-09-11T01:21:06.099Z,78.90
2017-09-11T01:23:34.339Z,78.80
2017-09-11T01:26:03.372Z,79.00
2017-09-11T01:28:32.014Z,79.00
2017-09-11T01:31:00.268Z,79.00
2017-09-11T01:33:28.504Z,78.90
2017-09-11T01:35:56.738Z,78.80
2017-09-11T01:38:25.075Z,78.90
2017-09-11T01:40:53.322Z,78.90
2017-09-11T01:43:21.597Z,79.00
2017-09-11T01:45:49.934Z,79.70
2017-09-11T01:48:18.211Z,79.30
2017-09-11T01:50:46.456Z,79.40
2017-09-11T01:53:15.474Z,79.60
2017-09-11T01:55:43.714Z,79.60
2017-09-11T01:58:12.049Z,79.50
2017-09-11T02:00:40.334Z,79.30
2017-09-11T02:03:08.631Z,79.50
2017-09-11T02:05:36.882Z,79.40
2017-09-11T02:08:05.134Z,79.40
2017-09-11T02:10:34.146Z,79.10
2017-09-11T02:13:03.162Z,79.00
2017-09-11T02:15:31.395Z,79.00
2017-09-11T02:17:59.841Z,79.30
2017-09-11T02:20:28.076Z,79.20
2017-09-11T02:22:57.089Z,79.40
2017-09-11T02:25:25.331Z,79.30
2017-09-11T02:27:53.608Z,79.30
2017-09-11T02:30:21.833Z,79.20
2017-09-11T02:32:50.142Z,79.30
2017-09-11T02:35:18.418Z,79.40
2017-09-11T02:37:46.691Z,79.40
2017-09-11T02:40:14.935Z,79.40
2017-09-11T02:42:43.186Z,79.20
2017-09-11T02:45:11.542Z,79.50
2017-09-11T02:47:39.839Z,79.10
2017-09-11T02:50:08.105Z,79.00
2017-09-11T02:52:36.398Z,78.90
2017-09-11T02:55:04.692Z,78.70
2017-09-11T02:57:32.938Z,78.70
2017-09-11T03:00:01.238Z,78.80
2017-09-11T03:02:29.635Z,78.90
2017-09-11T03:05:03.855Z,78.80
2017-09-11T03:07:32.132Z,78.80
2017-09-11T03:10:00.438Z,79.10
2017-09-11T03:12:28.679Z,79.20
2017-09-11T03:14:56.929Z,79.30
2017-09-11T03:17:25.972Z,79.10
2017-09-11T03:19:54.433Z,79.10
2017-09-11T03:22:23.425Z,78.70
2017-09-11T03:24:52.439Z,78.50
2017-09-11T03:27:20.728Z,79.30
2017-09-11T03:29:48.983Z,78.40
2017-09-11T03:32:17.240Z,78.40
2017-09-11T03:34:45.570Z,78.40
2017-09-11T03:37:13.812Z,79.20
2017-09-11T03:39:42.853Z,77.90
2017-09-11T03:42:11.090Z,77.90
2017-09-11T03:44:40.107Z,77.90
2017-09-11T03:47:08.406Z,77.90
2017-09-11T03:49:36.655Z,77.70
2017-09-11T03:52:05.682Z,76.90
2017-09-11T03:54:33.971Z,76.90
2017-09-11T03:57:02.222Z,76.70
2017-09-11T04:02:04.238Z,76.70
2017-09-11T04:04:32.524Z,76.80
2017-09-11T04:07:00.788Z,76.70
2017-09-11T04:09:29.077Z,76.40
2017-09-11T04:11:57.374Z,76.10
2017-09-11T04:14:25.613Z,76.00
2017-09-11T04:16:54.667Z,76.40
2017-09-11T04:19:22.907Z,76.40
2017-09-11T04:21:51.898Z,76.00
2017-09-11T04:24:20.898Z,76.40
2017-09-11T04:26:49.232Z,76.40
2017-09-11T04:29:17.479Z,76.40
2017-09-11T04:31:45.772Z,76.00
2017-09-11T04:34:14.023Z,76.00
2017-09-11T04:36:43.055Z,76.40
2017-09-11T04:39:11.318Z,76.40
2017-09-11T04:41:39.569Z,75.60
2017-09-11T04:44:09.231Z,75.90
2017-09-11T04:46:37.538Z,75.90
2017-09-11T04:49:05.758Z,75.70
2017-09-11T04:51:34.018Z,75.60
2017-09-11T04:54:03.042Z,75.50
2017-09-11T04:56:31.313Z,75.50
2017-09-11T04:58:59.553Z,75.30
2017-09-11T05:01:27.808Z,75.70
2017-09-11T05:03:56.090Z,76.10
2017-09-11T05:06:24.335Z,76.70
2017-09-11T05:08:52.607Z,76.90
2017-09-11T05:11:21.650Z,77.00
2017-09-11T05:13:49.927Z,77.00
2017-09-11T05:16:18.179Z,77.40
2017-09-11T05:18:47.199Z,78.80
2017-09-11T05:21:15.482Z,78.80
2017-09-11T05:23:43.770Z,80.00
2017-09-11T05:26:13.238Z,81.90
2017-09-11T05:28:42.260Z,83.40
2017-09-11T05:31:10.571Z,83.40
2017-09-11T05:33:38.834Z,84.10
2017-09-11T05:36:07.078Z,85.10
2017-09-11T05:38:36.115Z,87.60
2017-09-11T05:41:04.403Z,87.40
2017-09-11T05:43:32.659Z,88.10
2017-09-11T05:46:00.903Z,88.90
2017-09-11T05:48:29.234Z,89.90
2017-09-11T05:50:57.479Z,90.50
2017-09-11T05:53:26.504Z,90.90
2017-09-11T05:55:54.810Z,90.90
2017-09-11T05:58:23.065Z,91.10
2017-09-11T06:00:51.320Z,91.40
2017-09-11T06:03:20.315Z,91.80
2017-09-11T06:05:49.338Z,92.10
2017-09-11T06:08:17.588Z,92.10
2017-09-11T06:10:46.627Z,92.30
2017-09-11T06:13:14.878Z,92.30
2017-09-11T06:15:43.898Z,92.80
2017-09-11T06:18:12.190Z,92.70
2017-09-11T06:20:40.498Z,92.80
2017-09-11T06:23:08.714Z,92.80
2017-09-11T06:25:37.751Z,93.00
2017-09-11T06:28:05.989Z,93.00
2017-09-11T06:30:35.030Z,93.10
2017-09-11T06:33:03.275Z,93.00
2017-09-11T06:35:31.545Z,93.50
2017-09-11T06:38:00.707Z,94.00
2017-09-11T06:40:29.034Z,93.70
2017-09-11T06:42:58.042Z,93.60
2017-09-11T06:45:27.068Z,93.60
2017-09-11T06:47:55.306Z,93.60
2017-09-11T06:50:24.359Z,93.70
2017-09-11T06:52:52.624Z,93.70
2017-09-11T06:55:20.886Z,93.80
2017-09-11T06:57:49.146Z,93.90
2017-09-11T07:00:18.159Z,93.60
2017-09-11T07:02:46.402Z,93.60
2017-09-11T07:05:14.663Z,93.70
2017-09-11T07:07:42.927Z,93.70
2017-09-11T07:10:11.203Z,93.70
2017-09-11T07:12:51.620Z,94.10
2017-09-11T07:15:20.664Z,93.40
2017-09-11T07:17:48.898Z,93.40
2017-09-11T07:20:17.919Z,93.50
2017-09-11T07:22:46.198Z,93.60
2017-09-11T07:25:14.467Z,93.40
2017-09-11T07:27:42.717Z,93.60
2017-09-11T07:30:10.964Z,93.40
2017-09-11T07:32:39.869Z,93.00
2017-09-11T07:35:08.151Z,93.20
2017-09-11T07:37:36.428Z,93.00
2017-09-11T07:40:04.667Z,92.30
2017-09-11T07:42:33.712Z,91.60
2017-09-11T07:45:01.969Z,91.60
2017-09-11T07:47:30.229Z,92.00
2017-09-11T07:49:59.274Z,90.10
2017-09-11T07:52:27.562Z,90.10
2017-09-11T07:54:55.970Z,89.20
2017-09-11T07:57:25.039Z,89.40
2017-09-11T07:59:53.275Z,89.30
2017-09-11T08:02:22.289Z,89.90
2017-09-11T08:04:50.543Z,89.90
2017-09-11T08:07:19.591Z,91.00
2017-09-11T08:09:47.831Z,91.00
2017-09-11T08:12:16.851Z,91.40
2017-09-11T08:14:45.092Z,91.40
2017-09-11T08:17:13.426Z,92.00
2017-09-11T08:19:41.746Z,92.30
2017-09-11T08:22:10.012Z,92.60
2017-09-11T08:24:38.251Z,92.80
2017-09-11T08:27:07.139Z,93.10
2017-09-11T08:29:36.154Z,93.40
2017-09-11T08:32:04.451Z,93.40
2017-09-11T08:34:32.712Z,93.70
2017-09-11T08:37:01.015Z,94.00
2017-09-11T08:39:29.290Z,93.90
2017-09-11T08:41:57.527Z,93.90
2017-09-11T08:44:26.626Z,94.00
2017-09-11T08:46:54.858Z,94.00
2017-09-11T08:49:23.127Z,94.10
2017-09-11T08:51:51.419Z,94.00
2017-09-11T08:54:19.675Z,93.70
2017-09-11T08:56:47.922Z,93.50
2017-09-11T08:59:16.250Z,93.50
2017-09-11T09:01:44.490Z,93.60
2017-09-11T09:04:13.521Z,93.60
2017-09-11T09:06:41.765Z,93.60
2017-09-11T09:09:10.787Z,93.50
2017-09-11T09:11:39.096Z,93.50
2017-09-11T09:14:07.372Z,93.70
2017-09-11T09:16:35.657Z,93.30
2017-09-11T09:19:03.900Z,93.40
2017-09-11T09:21:33.458Z,93.30
2017-09-11T09:24:01.701Z,93.30
2017-09-11T09:26:30.726Z,93.90
2017-09-11T09:28:59.012Z,93.90
2017-09-11T09:31:27.328Z,93.60
2017-09-11T09:33:55.579Z,93.70
2017-09-11T09:36:23.855Z,93.60
2017-09-11T09:38:52.136Z,93.40
2017-09-11T09:41:20.397Z,93.70
2017-09-11T09:43:48.690Z,93.40
2017-09-11T09:46:16.958Z,93.70
2017-09-11T09:48:45.250Z,93.80
2017-09-11T09:51:13.538Z,93.80
2017-09-11T09:53:41.783Z,94.10
2017-09-11T09:56:10.822Z,94.40
2017-09-11T09:58:39.099Z,94.40
2017-09-11T10:01:07.359Z,94.50
2017-09-11T10:03:35.598Z,94.70
2017-09-11T10:06:04.661Z,94.60
2017-09-11T10:08:32.900Z,94.60
2017-09-11T10:11:01.947Z,94.80
2017-09-11T10:13:30.207Z,94.80
2017-09-11T10:15:58.473Z,94.50
2017-09-11T10:18:27.510Z,93.80
2017-09-11T10:20:55.868Z,93.80
2017-09-11T10:23:24.146Z,93.80
2017-09-11T10:25:52.430Z,94.20
2017-09-11T10:28:21.570Z,94.50
2017-09-11T10:30:49.808Z,94.50
2017-09-11T10:33:18.067Z,94.30
2017-09-11T10:35:47.079Z,93.80
2017-09-11T10:38:16.103Z,92.50
2017-09-11T10:40:44.347Z,92.50
2017-09-11T10:43:13.376Z,92.20
2017-09-11T10:45:41.615Z,92.10
2017-09-11T10:48:09.944Z,92.50
2017-09-11T10:50:38.223Z,92.50
2017-09-11T10:53:06.505Z,92.80
2017-09-11T10:55:34.754Z,92.20
2017-09-11T10:58:03.776Z,90.60
2017-09-11T11:00:32.019Z,90.60
2017-09-11T11:03:01.027Z,89.50
2017-09-11T11:05:30.067Z,89.30
2017-09-11T11:07:58.320Z,89.20
2017-09-11T11:10:27.331Z,84.50
2017-09-11T11:12:55.624Z,84.40
2017-09-11T11:15:23.865Z,84.30
2017-09-11T11:17:52.878Z,82.90
2017-09-11T11:20:21.116Z,82.90
2017-09-11T11:22:49.462Z,84.20
2017-09-11T11:25:17.746Z,86.50
2017-09-11T11:27:46.007Z,87.60
2017-09-11T11:30:14.298Z,87.10
2017-09-11T11:32:42.535Z,86.60
2017-09-11T11:35:10.800Z,87.50
2017-09-11T11:37:39.152Z,86.60
2017-09-11T11:40:07.398Z,85.30
2017-09-11T11:42:36.448Z,82.70
2017-09-11T11:45:04.695Z,82.70
2017-09-11T11:47:32.994Z,80.10
2017-09-11T11:50:01.263Z,80.80
2017-09-11T11:52:30.270Z,75.50
2017-09-11T11:54:58.531Z,75.50
2017-09-11T11:57:26.795Z,73.90
2017-09-11T11:59:55.133Z,71.50
2017-09-11T12:02:23.369Z,71.10
2017-09-11T12:04:52.392Z,68.60
2017-09-11T12:07:20.689Z,68.60
2017-09-11T12:09:48.965Z,70.00
2017-09-11T12:12:17.251Z,70.00
2017-09-11T12:14:45.506Z,69.40
2017-09-11T12:17:13.742Z,68.90
2017-09-11T12:19:42.802Z,68.80
2017-09-11T12:22:12.838Z,68.80
2017-09-11T12:24:41.094Z,66.30
2017-09-11T12:27:09.338Z,65.90
2017-09-11T12:29:37.596Z,65.30
2017-09-11T12:32:05.852Z,66.10
2017-09-11T12:34:34.087Z,63.00
2017-09-11T12:37:03.106Z,59.40
2017-09-11T12:39:31.334Z,59.40
2017-09-11T12:41:59.695Z,60.00
2017-09-11T12:44:27.966Z,60.50
2017-09-11T12:46:56.219Z,60.10
2017-09-11T12:49:25.249Z,61.00
2017-09-11T12:51:53.505Z,60.90
2017-09-11T12:54:22.526Z,59.60
2017-09-11T12:56:50.783Z,59.50
2017-09-11T12:59:19.088Z,58.30
2017-09-11T13:01:47.362Z,57.70
2017-09-11T13:04:15.611Z,57.90
2017-09-11T13:06:44.632Z,57.30
2017-09-11T13:09:12.888Z,57.30
2017-09-11T13:11:41.138Z,56.50
2017-09-11T13:14:09.383Z,56.80
2017-09-11T13:16:37.674Z,56.30
2017-09-11T13:19:05.946Z,57.10
2017-09-11T13:21:34.297Z,57.30
2017-09-11T13:24:02.527Z,57.60
2017-09-11T13:26:30.788Z,58.70
2017-09-11T13:28:59.025Z,58.00
2017-09-11T13:31:27.277Z,58.20
2017-09-11T13:33:55.515Z,57.60
2017-09-11T13:36:23.770Z,59.40
2017-09-11T13:38:52.806Z,61.20
2017-09-11T13:41:21.083Z,61.10
2017-09-11T13:43:49.319Z,60.90
2017-09-11T13:46:17.895Z,60.30
2017-09-11T13:48:46.122Z,58.90
2017-09-11T13:51:14.369Z,58.10
2017-09-11T13:53:42.613Z,58.60
2017-09-11T13:56:10.862Z,59.10
2017-09-11T13:58:39.114Z,59.00
2017-09-11T14:01:08.129Z,57.60
2017-09-11T14:03:37.158Z,57.50
2017-09-11T14:06:05.394Z,57.50
2017-09-11T14:08:34.429Z,55.90
2017-09-11T14:11:02.718Z,55.90
2017-09-11T14:13:31.023Z,51.90
2017-09-11T14:15:59.310Z,50.60
2017-09-11T14:18:27.605Z,51.20
2017-09-11T14:20:55.873Z,52.10
2017-09-11T14:23:24.124Z,52.60
2017-09-11T14:25:52.359Z,53.00
2017-09-11T14:28:20.645Z,53.30
2017-09-11T14:30:48.897Z,53.20
2017-09-11T14:33:17.159Z,52.60
2017-09-11T14:35:45.430Z,52.40
2017-09-11T14:38:13.698Z,52.60
2017-09-11T14:40:41.947Z,53.00
2017-09-11T14:43:10.970Z,53.20
2017-09-11T14:45:39.210Z,53.20
2017-09-11T14:48:07.555Z,53.20
2017-09-11T14:50:35.790Z,53.20
2017-09-11T14:53:05.704Z,53.30
2017-09-11T14:55:33.951Z,53.30
2017-09-11T14:58:02.209Z,53.60
2017-09-11T15:00:30.455Z,52.60
2017-09-11T15:02:59.483Z,51.90
2017-09-11T15:05:27.724Z,51.90
2017-09-11T15:07:56.056Z,51.40
2017-09-11T15:10:24.391Z,51.80
2017-09-11T15:12:52.649Z,52.50
2017-09-11T15:15:20.890Z,51.20
2017-09-11T15:17:49.190Z,51.00
2017-09-11T15:20:17.471Z,50.50
2017-09-11T15:22:45.707Z,50.90
2017-09-11T15:25:14.743Z,51.50
2017-09-11T15:27:42.987Z,51.50
2017-09-11T15:30:11.251Z,49.80
2017-09-11T15:32:39.515Z,50.00
2017-09-11T15:35:07.775Z,51.20
2017-09-11T15:37:36.007Z,51.00
2017-09-11T15:40:04.277Z,51.40
2017-09-11T15:42:32.522Z,51.20
2017-09-11T15:45:00.790Z,51.70
2017-09-11T15:47:29.030Z,52.20
2017-09-11T15:49:57.893Z,53.10
2017-09-11T15:52:26.150Z,53.40
2017-09-11T15:54:54.421Z,54.60
2017-09-11T15:57:22.654Z,54.60
2017-09-11T15:59:50.911Z,55.10
2017-09-11T16:02:19.163Z,55.60
2017-09-11T16:04:47.539Z,55.30
2017-09-11T16:07:15.819Z,55.70
2017-09-11T16:09:44.832Z,55.50
2017-09-11T16:12:13.340Z,55.50
2017-09-11T16:14:41.594Z,55.60
2017-09-11T16:17:09.879Z,55.70
2017-09-11T16:19:38.874Z,56.00
2017-09-11T16:22:07.148Z,56.10
2017-09-11T16:24:35.398Z,55.90
2017-09-11T16:27:03.654Z,56.50
2017-09-11T16:29:31.912Z,58.20
2017-09-11T16:32:00.169Z,60.00
2017-09-11T16:34:29.191Z,67.30
2017-09-11T16:36:57.450Z,67.20
2017-09-11T16:39:25.693Z,69.30
2017-09-11T16:41:53.963Z,69.20
2017-09-11T16:44:22.202Z,68.50
2017-09-11T16:46:50.487Z,68.60
2017-09-11T16:49:18.733Z,70.00
2017-09-11T16:51:47.758Z,70.00
2017-09-11T16:54:15.988Z,69.90
2017-09-11T16:56:44.247Z,70.40
2017-09-11T16:59:12.488Z,72.70
2017-09-11T17:01:40.762Z,73.60
2017-09-11T17:04:09.020Z,72.10
2017-09-11T17:06:38.052Z,71.70
2017-09-11T17:09:06.330Z,71.60
2017-09-11T17:11:34.602Z,72.70
2017-09-11T17:14:03.615Z,72.60
2017-09-11T17:16:31.886Z,72.60
2017-09-11T17:19:00.896Z,73.20
2017-09-11T17:21:29.163Z,73.20
2017-09-11T17:24:01.189Z,73.60
2017-09-11T17:26:29.456Z,73.50
2017-09-11T17:28:57.686Z,73.30
2017-09-11T17:31:26.714Z,73.00
2017-09-11T17:33:54.978Z,73.00
2017-09-11T17:36:23.233Z,74.10
2017-09-11T17:38:52.264Z,74.20
2017-09-11T17:41:20.510Z,74.20
2017-09-11T17:43:48.754Z,73.60
2017-09-11T17:46:17.040Z,73.90
2017-09-11T17:48:45.295Z,74.50
2017-09-11T17:51:13.527Z,74.70
2017-09-11T17:53:41.782Z,75.20
2017-09-11T17:56:10.043Z,75.40
2017-09-11T17:58:38.583Z,75.80
2017-09-11T18:01:06.826Z,76.30
2017-09-11T18:03:35.332Z,76.40
2017-09-11T18:06:03.550Z,76.90
2017-09-11T18:08:31.806Z,77.00
2017-09-11T18:11:00.040Z,77.10
2017-09-11T18:13:28.302Z,77.50
2017-09-11T18:15:56.556Z,77.60
2017-09-11T18:18:25.584Z,76.30
2017-09-11T18:20:53.830Z,76.20
2017-09-11T18:23:22.132Z,76.40
2017-09-11T18:25:51.143Z,76.10
2017-09-11T18:28:19.417Z,76.00
2017-09-11T18:30:47.657Z,76.00
2017-09-11T18:33:15.896Z,76.20
2017-09-11T18:35:44.147Z,76.10
2017-09-11T18:38:13.173Z,76.10
2017-09-11T18:40:41.439Z,76.10
2017-09-11T18:43:10.450Z,76.20
2017-09-11T18:45:38.698Z,76.10
2017-09-11T18:48:06.941Z,75.80
2017-09-11T18:50:35.265Z,75.50
2017-09-11T18:53:03.483Z,75.60
2017-09-11T18:55:31.744Z,75.70
2017-09-11T18:57:59.987Z,75.80
2017-09-11T19:00:28.254Z,76.10
2017-09-11T19:02:56.496Z,76.30
2017-09-11T19:05:24.756Z,76.40
2017-09-11T19:07:54.164Z,76.80
2017-09-11T19:10:22.436Z,76.70
2017-09-11T19:12:51.446Z,77.20
2017-09-11T19:15:19.723Z,77.20
2017-09-11T19:17:47.992Z,76.80
2017-09-11T19:20:17.034Z,76.90
2017-09-11T19:22:45.298Z,76.80
2017-09-11T19:25:13.537Z,77.00
2017-09-11T19:27:42.593Z,77.70
2017-09-11T19:30:10.844Z,76.90
2017-09-11T19:32:39.096Z,77.00
2017-09-11T19:35:08.123Z,77.50
2017-09-11T19:37:36.367Z,77.50
2017-09-11T19:40:05.431Z,77.70
2017-09-11T19:42:34.098Z,77.40
2017-09-11T19:45:02.399Z,77.00
2017-09-11T19:47:30.642Z,77.70
2017-09-11T19:49:58.900Z,76.80
2017-09-11T19:52:27.156Z,77.10
2017-09-11T19:54:55.406Z,77.10
2017-09-11T19:57:24.588Z,77.10
2017-09-11T19:59:52.825Z,77.00
2017-09-11T20:02:21.080Z,76.80
2017-09-11T20:04:49.319Z,76.60
2017-09-11T20:07:18.366Z,76.30
2017-09-11T20:09:46.608Z,76.30
2017-09-11T20:12:14.872Z,76.30
2017-09-11T20:14:43.878Z,75.80
2017-09-11T20:17:12.149Z,75.80
2017-09-11T20:19:41.158Z,75.70
2017-09-11T20:22:10.186Z,76.00
2017-09-11T20:24:38.427Z,76.00
2017-09-11T20:27:07.457Z,76.30
2017-09-11T20:29:35.717Z,76.20
2017-09-11T20:32:04.750Z,76.50
2017-09-11T20:34:32.994Z,76.50
2017-09-11T20:37:01.291Z,76.60
2017-09-11T20:39:29.536Z,76.20
2017-09-11T20:41:57.798Z,76.20
2017-09-11T20:44:26.030Z,76.40
2017-09-11T20:46:54.301Z,76.60
2017-09-11T20:49:22.555Z,76.80
2017-09-11T20:51:51.615Z,76.40
2017-09-11T20:54:19.835Z,76.30
2017-09-11T20:56:48.861Z,76.60
2017-09-11T20:59:17.126Z,76.60
2017-09-11T21:01:46.199Z,76.40
2017-09-11T21:04:14.437Z,76.40
2017-09-11T21:06:42.673Z,76.40
2017-09-11T21:09:11.835Z,76.30
2017-09-11T21:11:40.083Z,76.30
2017-09-11T21:14:08.337Z,76.10
2017-09-11T21:16:37.344Z,76.20
2017-09-11T21:19:06.379Z,76.20
2017-09-11T21:21:34.624Z,76.20
2017-09-11T21:24:02.900Z,75.60
2017-09-11T21:26:31.924Z,75.80
2017-09-11T21:29:00.168Z,75.80
2017-09-11T21:31:28.392Z,76.10
2017-09-11T21:33:56.646Z,76.30
2017-09-11T21:36:25.642Z,76.00
2017-09-11T21:38:54.657Z,75.90
2017-09-11T21:41:22.891Z,75.90
2017-09-11T21:43:51.168Z,75.90
2017-09-11T21:46:19.393Z,76.00
2017-09-11T21:48:47.652Z,76.30
2017-09-11T21:51:16.649Z,76.60
2017-09-11T21:53:44.898Z,76.60
2017-09-11T21:56:13.130Z,76.80
2017-09-11T21:58:41.374Z,76.80
2017-09-11T22:01:10.368Z,77.30
2017-09-11T22:03:38.612Z,77.30
2017-09-11T22:06:06.840Z,77.70
2017-09-11T22:08:35.085Z,78.00
2017-09-11T22:11:04.085Z,78.30
2017-09-11T22:13:32.332Z,78.30
2017-09-11T22:16:00.589Z,78.50
2017-09-11T22:18:28.831Z,78.60
2017-09-11T22:20:57.090Z,78.70
2017-09-11T22:23:26.113Z,78.80
2017-09-11T22:25:54.355Z,78.90
2017-09-11T22:28:22.593Z,79.10
2017-09-11T22:30:50.844Z,79.40
2017-09-11T22:33:19.079Z,79.40
2017-09-11T22:35:48.084Z,79.90
2017-09-11T22:38:16.325Z,79.70
2017-09-11T22:40:44.568Z,80.00
2017-09-11T22:43:12.808Z,80.10
2017-09-11T22:45:41.055Z,80.30
2017-09-11T22:48:10.057Z,81.00
2017-09-11T22:50:39.067Z,80.10
2017-09-11T22:53:07.307Z,80.10
2017-09-11T22:55:35.545Z,80.80
2017-09-11T22:58:03.779Z,80.10
2017-09-11T23:00:32.793Z,79.90
2017-09-11T23:03:01.029Z,79.90
2017-09-11T23:05:29.266Z,79.90
2017-09-11T23:07:57.492Z,79.70
2017-09-11T23:10:26.501Z,79.30
2017-09-11T23:12:54.737Z,79.30
2017-09-11T23:15:22.992Z,79.30
2017-09-11T23:17:51.232Z,79.20
2017-09-11T23:20:19.487Z,79.30
2017-09-11T23:22:48.485Z,79.80
2017-09-11T23:25:17.504Z,79.90
2017-09-11T23:27:45.734Z,79.90
2017-09-11T23:30:13.966Z,79.90
2017-09-11T23:32:42.226Z,80.00
2017-09-11T23:35:10.445Z,80.10
2017-09-11T23:37:38.709Z,80.20
2017-09-11T23:40:06.944Z,80.00
2017-09-11T23:42:35.965Z,80.10
2017-09-11T23:45:04.192Z,80.10
2017-09-11T23:47:32.441Z,80.20
2017-09-11T23:50:00.775Z,79.90
2017-09-11T23:52:29.012Z,79.70
2017-09-11T23:54:57.248Z,79.60
2017-09-11T23:57:25.497Z,79.80
2017-09-11T23:59:53.740Z,79.60
